INGA4: Red River, Index, AR

                                SHEF ID:       INGA4     Red River at Index, AR
STATION TYPE: Stream Gauge
Regulating: Stage = 19.80, Flow = 104273

PRECIP STAGE RIV-FLOW WTR-TEMP BAT-LOAD
in ft cfs F volt
Ccp-Rev Ccp-Rev Ccp-Rev Ccp-Rev Ccp-Rev
(America/Chicago)
04/25 00:00 0.01 1.80 5848 71.94 12.67
04/25 01:00 0.00 1.81 5881 71.80 12.65
04/25 02:00 0.00 1.82 5914 71.53 12.63
04/25 03:00 0.00 1.84 5980 71.26 12.62
04/25 04:00 0.00 1.85 6013 70.97 12.60
04/25 05:00 0.00 1.88 6113 70.75 12.59
04/25 06:00 0.00 1.90 6180 70.54 12.57
04/25 07:00 0.00 1.94 6314 70.34 12.54
04/25 08:00 0.00 1.97 6415 70.16 12.60
04/25 09:00 0.00 2.01 6551 70.12 13.11
04/25 10:00 0.00 2.05 6687 70.16 13.55
04/25 11:00 0.00 2.09 6824 70.30 13.65
04/25 12:00 0.00 2.13 6962 70.56 13.61
04/25 13:00 0.00 2.17 7101 70.86 13.45
04/25 14:00 0.00 2.22 7275 71.15 13.39
04/25 15:00 0.00 2.26 7415 71.51 13.36
04/25 16:00 0.00 2.30 7556 71.76 13.35
04/25 17:00 0.00 2.34 7698 71.87 13.25
04/25 18:00 0.00 2.37 7805 72.00 13.25
04/25 19:00 0.00 2.41 7948 72.18 13.21
04/25 20:00 0.00 2.45 8092 72.21 13.09
04/25 21:00 0.00 2.48 8200 72.09 12.80
04/25 22:00 0.00 2.52 8345 72.00 12.72
04/25 23:00 0.00 2.54 8417 71.96 12.70
Data processed at Sun 26Apr2026 04:11 GMT

NOTICE: If you are parsing this page

Please convert to using our Data API. Starting early 2026 we will be migrating to: https://water.usace.army.mil with modern pages rendered in JavaScript. When this migration completes you will no longer be able to scrape this page! CWMSDataAPI (CDA)

Timeseries IDs (TSIDs)

TSIDs used from left to right in the data table
INDX.Precip-Inc.Total.1Hour.1Hour.Ccp-Rev
INDX.Stage.Inst.1Hour.0.Ccp-Rev
INDX.Flow.Inst.1Hour.0.Ccp-Rev
INDX.Temp-Water.Inst.1Hour.0.Ccp-Rev
INDX.Volt-Battery Load.Inst.1Hour.0.Ccp-Rev

                            

All information presented herein is the property of the government of the United States of America and may be revised or deleted at any time without prior notice. Dissemination of this information without the expressed written consent of the Public Affairs Office, Tulsa District U.S. Army Corps of Engineers is strictly prohibited. These data are gathered electronically and, as presented, have NOT undergone any form of quality control. These data are NOT guaranteed to be valid or correct.